RCTP/TPE METAR and TAF weather

Enter ICAO airport designator
Station Type Date Time Source
RCTP METAR 2019/08/19 01:30 UTC NOAA

RCTP 190130Z 08006KT 040V120 9999 FEW010 SCT030 BKN100 29/26 Q1005 NOSIG RMK A2970


Station Type Date Time Source
RCTP Decoded METAR 2019/08/19 01:30 UTC NOAA

Station name not available
Aug 18, 2019 - 09:30 PM EDT / 2019.08.19 0130 UTC
Wind: from the E (080 degrees) at 7 MPH (6 KT) (direction variable):0
Visibility: greater than 7 mile(s):0
Sky conditions: mostly cloudy
Temperature: 84 F (29 C)
Dew Point: 78 F (26 C)
Relative Humidity: 83%
Pressure (altimeter): 29.68 in. Hg (1005 hPa)
ob: RCTP 190130Z 08006KT 040V120 9999 FEW010 SCT030 BKN100 29/26 Q1005 NOSIG RMK A2970
cycle: 1

Station Type Date Time Source
RCTP TAF 2019/08/18 18:05 UTC NOAA

TAF RCTP 181700Z 1818/1924 18005KT 9999 FEW016 BKN032
TEMPO 1818/1822 20010KT 4000 SHRA FEW007 BKN015
BECMG 1900/1902 33005KT
TEMPO 1904/1910 03008KT FEW010 BKN020
BECMG 1910/1912 05005KT
TEMPO 1915/1919 09007KT 5000 RA FEW010 BKN017

Example: see airport list